Terminal Aerodrome Forecast
Issued by NWS Burlington, VT

Home | Current Version | Previous Version | Text Only | Print | Product List | Glossary On
Versions: 1 2 3 4 5 6 7 8 9 10 11 12 13
000
FTUS41 KBTV 281133
TAFBTV
TAF
KBTV 281133Z 2812/2912 20012G22KT P6SM -SHRA BKN035 OVC050
     FM281400 25010KT P6SM SCT030 OVC045
     FM281800 30009KT P6SM BKN040 OVC060
     FM290300 31007KT P6SM SCT040 BKN080=

USA.gov is the U.S. government's official web portal to all federal, state and local government web resources and services.